MMGM/GYM METAR and TAF weather

Enter ICAO airport designator
Station Type Date Time Source
MMGM METAR 2020/09/26 01:43 UTC NOAA

MMGM 260143Z 00000KT 10SM SKC 31/28 A2977


Station Type Date Time Source
MMGM Decoded METAR 2020/09/26 01:43 UTC NOAA

Guaymas International Airport, Mexico (MMGM) 27-58N 110-56W
Sep 25, 2020 - 09:43 PM EDT / 2020.09.26 0143 UTC
Wind: Calm:0
Visibility: 10 mile(s):0
Sky conditions: clear
Temperature: 87 F (31 C)
Heat index: 105.3 F (40.7 C):1
Dew Point: 82 F (28 C)
Relative Humidity: 84%
Pressure (altimeter): 29.77 in. Hg (1008 hPa)
ob: MMGM 260143Z 00000KT 10SM SKC 31/28 A2977
cycle: 1

Station Type Date Time Source
MMGM TAF 2020/09/26 06:40 UTC NOAA

TAF MMGM 260533Z 2606/2706 00000KT P6SM SKC
TEMPO 2610/2614 3SM BR BKN010
FM261800 23010KT P6SM SKC
BECMG 2700/2701 23005KT

Example: see airport list